sensor_id;sensor_type;location;lat;lon;timestamp;pressure;altitude;pressure_sealevel;temperature;humidity
12664;BME280;6396;58.490;15.528;2022-11-18T00:00:02;100910.06;;;3.00;100.00
12664;BME280;6396;58.490;15.528;2022-11-18T00:02:29;100827.13;;;2.59;100.00
12664;BME280;6396;58.490;15.528;2022-11-18T00:04:56;100938.06;;;3.22;100.00
12664;BME280;6396;58.490;15.528;2022-11-18T00:07:23;100932.81;;;3.19;100.00
12664;BME280;6396;58.490;15.528;2022-11-18T00:09:50;100812.19;;;2.43;100.00
12664;BME280;6396;58.490;15.528;2022-11-18T00:12:16;100649.09;;;1.62;100.00
12664;BME280;6396;58.490;15.528;2022-11-18T00:15:02;100938.97;;;3.27;100.00
12664;BME280;6396;58.490;15.528;2022-11-18T00:17:30;100888.31;;;3.03;100.00
12664;BME280;6396;58.490;15.528;2022-11-18T00:19:57;100870.88;;;2.96;100.00
12664;BME280;6396;58.490;15.528;2022-11-18T00:22:24;100773.06;;;2.38;100.00
12664;BME280;6396;58.490;15.528;2022-11-18T00:24:51;100959.91;;;3.35;100.00
12664;BME280;6396;58.490;15.528;2022-11-18T00:27:18;100930.31;;;3.34;100.00
12664;BME280;6396;58.490;15.528;2022-11-18T00:29:44;100906.63;;;3.04;100.00
12664;BME280;6396;58.490;15.528;2022-11-18T00:32:13;100773.09;;;2.40;100.00
12664;BME280;6396;58.490;15.528;2022-11-18T00:34:39;100931.00;;;3.11;100.00
12664;BME280;6396;58.490;15.528;2022-11-18T00:37:07;100882.16;;;2.90;100.00
12664;BME280;6396;58.490;15.528;2022-11-18T00:39:34;100688.34;;;1.85;100.00
12664;BME280;6396;58.490;15.528;2022-11-18T00:42:01;100940.78;;;3.36;100.00
12664;BME280;6396;58.490;15.528;2022-11-18T00:44:45;100924.03;;;3.11;100.00
12664;BME280;6396;58.490;15.528;2022-11-18T00:47:13;100938.97;;;3.29;100.00
12664;BME280;6396;58.490;15.528;2022-11-18T00:49:40;100924.22;;;3.31;100.00
12664;BME280;6396;58.490;15.528;2022-11-18T00:52:07;100793.75;;;2.24;100.00
12664;BME280;6396;58.490;15.528;2022-11-18T00:54:34;100884.78;;;2.93;100.00
12664;BME280;6396;58.490;15.528;2022-11-18T00:57:00;100784.44;;;2.46;100.00
12664;BME280;6396;58.490;15.528;2022-11-18T00:59:28;100987.78;;;3.37;100.00
12664;BME280;6396;58.490;15.528;2022-11-18T01:01:55;100890.19;;;3.16;100.00
12664;BME280;6396;58.490;15.528;2022-11-18T01:04:23;100870.84;;;2.91;100.00
12664;BME280;6396;58.490;15.528;2022-11-18T01:06:50;100937.25;;;3.28;100.00
12664;BME280;6396;58.490;15.528;2022-11-18T01:09:17;100943.34;;;3.30;100.00
12664;BME280;6396;58.490;15.528;2022-11-18T01:11:43;100940.00;;;3.46;100.00
12664;BME280;6396;58.490;15.528;2022-11-18T01:14:27;100917.97;;;3.14;100.00
12664;BME280;6396;58.490;15.528;2022-11-18T01:16:54;100946.06;;;3.42;100.00
12664;BME280;6396;58.490;15.528;2022-11-18T01:19:23;100924.09;;;3.17;100.00
12664;BME280;6396;58.490;15.528;2022-11-18T01:21:50;100988.69;;;3.44;100.00
12664;BME280;6396;58.490;15.528;2022-11-18T01:24:17;100769.59;;;2.36;100.00
12664;BME280;6396;58.490;15.528;2022-11-18T01:26:44;100979.16;;;3.46;100.00
12664;BME280;6396;58.490;15.528;2022-11-18T01:29:11;100982.66;;;3.50;100.00
12664;BME280;6396;58.490;15.528;2022-11-18T01:31:38;100885.59;;;2.88;100.00
12664;BME280;6396;58.490;15.528;2022-11-18T01:34:04;100886.41;;;2.81;100.00
12664;BME280;6396;58.490;15.528;2022-11-18T01:36:33;100995.63;;;3.39;100.00
12664;BME280;6396;58.490;15.528;2022-11-18T01:39:00;100924.19;;;3.28;100.00
12664;BME280;6396;58.490;15.528;2022-11-18T01:41:27;100853.41;;;2.86;100.00
12664;BME280;6396;58.490;15.528;2022-11-18T01:43:55;100956.56;;;3.51;100.00
12664;BME280;6396;58.490;15.528;2022-11-18T01:46:24;100810.63;;;2.63;100.00
12664;BME280;6396;58.490;15.528;2022-11-18T01:48:53;100878.66;;;2.91;100.00
12664;BME280;6396;58.490;15.528;2022-11-18T01:51:24;100991.38;;;3.52;100.00
12664;BME280;6396;58.490;15.528;2022-11-18T01:53:57;100962.59;;;3.44;100.00
12664;BME280;6396;58.490;15.528;2022-11-18T01:56:30;100940.75;;;3.31;100.00
12664;BME280;6396;58.490;15.528;2022-11-18T01:59:00;100905.84;;;3.19;100.00
12664;BME280;6396;58.490;15.528;2022-11-18T02:01:29;100793.06;;;2.44;100.00
12664;BME280;6396;58.490;15.528;2022-11-18T02:03:56;100822.03;;;2.77;100.00
12664;BME280;6396;58.490;15.528;2022-11-18T02:06:23;100604.53;;;1.29;100.00
12664;BME280;6396;58.490;15.528;2022-11-18T02:08:50;100953.00;;;3.43;100.00
12664;BME280;6396;58.490;15.528;2022-11-18T02:11:18;100972.31;;;3.60;100.00
12664;BME280;6396;58.490;15.528;2022-11-18T02:14:05;100937.41;;;3.51;100.00
12664;BME280;6396;58.490;15.528;2022-11-18T02:16:42;100944.47;;;3.64;100.00
12664;BME280;6396;58.490;15.528;2022-11-18T02:19:29;100855.09;;;2.81;100.00
12664;BME280;6396;58.490;15.528;2022-11-18T02:22:13;100901.59;;;3.31;100.00
12664;BME280;6396;58.490;15.528;2022-11-18T02:24:55;100925.97;;;3.32;100.00
12664;BME280;6396;58.490;15.528;2022-11-18T02:27:47;100975.75;;;3.58;100.00
12664;BME280;6396;58.490;15.528;2022-11-18T02:30:21;100918.16;;;3.35;100.00
12664;BME280;6396;58.490;15.528;2022-11-18T02:32:53;100908.56;;;3.32;100.00
12664;BME280;6396;58.490;15.528;2022-11-18T02:35:25;100874.47;;;3.10;100.00
12664;BME280;6396;58.490;15.528;2022-11-18T02:37:56;100989.75;;;3.67;100.00
12664;BME280;6396;58.490;15.528;2022-11-18T02:40:26;100885.84;;;3.18;100.00
12664;BME280;6396;58.490;15.528;2022-11-18T02:42:57;100943.53;;;3.53;100.00
12664;BME280;6396;58.490;15.528;2022-11-18T02:45:29;100897.22;;;3.26;100.00
12664;BME280;6396;58.490;15.528;2022-11-18T02:47:58;100593.53;;;1.57;100.00
12664;BME280;6396;58.490;15.528;2022-11-18T02:50:29;101005.44;;;3.70;100.00
12664;BME280;6396;58.490;15.528;2022-11-18T02:53:00;100878.03;;;3.18;100.00
12664;BME280;6396;58.490;15.528;2022-11-18T02:55:30;100946.22;;;3.66;100.00
12664;BME280;6396;58.490;15.528;2022-11-18T02:58:00;100879.75;;;3.19;100.00
12664;BME280;6396;58.490;15.528;2022-11-18T03:00:30;100900.03;;;3.52;100.00
12664;BME280;6396;58.490;15.528;2022-11-18T03:02:57;100874.56;;;3.22;100.00
12664;BME280;6396;58.490;15.528;2022-11-18T03:05:30;100956.75;;;3.75;100.00
12664;BME280;6396;58.490;15.528;2022-11-18T03:08:02;100913.91;;;3.46;100.00
12664;BME280;6396;58.490;15.528;2022-11-18T03:10:38;100962.84;;;3.74;100.00
12664;BME280;6396;58.490;15.528;2022-11-18T03:13:13;100974.13;;;3.70;100.00
12664;BME280;6396;58.490;15.528;2022-11-18T03:15:49;100941.72;;;3.44;100.00
12664;BME280;6396;58.490;15.528;2022-11-18T03:18:24;100915.47;;;3.24;100.00
12664;BME280;6396;58.490;15.528;2022-11-18T03:20:57;100753.16;;;2.46;100.00
12664;BME280;6396;58.490;15.528;2022-11-18T03:23:31;100794.16;;;2.67;100.00
12664;BME280;6396;58.490;15.528;2022-11-18T03:26:03;100920.78;;;3.35;100.00
12664;BME280;6396;58.490;15.528;2022-11-18T03:28:35;100907.69;;;3.30;100.00
12664;BME280;6396;58.490;15.528;2022-11-18T03:31:11;100855.19;;;2.91;100.00
12664;BME280;6396;58.490;15.528;2022-11-18T03:33:43;100860.31;;;2.81;100.00
12664;BME280;6396;58.490;15.528;2022-11-18T03:36:13;100663.13;;;1.79;100.00
12664;BME280;6396;58.490;15.528;2022-11-18T03:38:43;100903.31;;;3.25;100.00
12664;BME280;6396;58.490;15.528;2022-11-18T03:41:13;100960.09;;;3.61;100.00
12664;BME280;6396;58.490;15.528;2022-11-18T03:43:46;100950.44;;;3.45;100.00
12664;BME280;6396;58.490;15.528;2022-11-18T03:46:19;100903.31;;;3.28;100.00
12664;BME280;6396;58.490;15.528;2022-11-18T03:48:50;100913.78;;;3.31;100.00
12664;BME280;6396;58.490;15.528;2022-11-18T03:51:21;100976.63;;;3.57;100.00
12664;BME280;6396;58.490;15.528;2022-11-18T03:53:51;100973.13;;;3.52;100.00
12664;BME280;6396;58.490;15.528;2022-11-18T03:56:23;100922.41;;;3.24;100.00
12664;BME280;6396;58.490;15.528;2022-11-18T03:58:55;100787.75;;;2.30;100.00
12664;BME280;6396;58.490;15.528;2022-11-18T04:01:29;100973.13;;;3.53;100.00
12664;BME280;6396;58.490;15.528;2022-11-18T04:03:57;100993.19;;;3.59;100.00
12664;BME280;6396;58.490;15.528;2022-11-18T04:06:29;100862.94;;;2.82;100.00
12664;BME280;6396;58.490;15.528;2022-11-18T04:08:59;100875.13;;;2.83;100.00
12664;BME280;6396;58.490;15.528;2022-11-18T04:11:31;100936.34;;;3.27;100.00
12664;BME280;6396;58.490;15.528;2022-11-18T04:14:18;100835.84;;;2.65;100.00
12664;BME280;6396;58.490;15.528;2022-11-18T04:16:50;100994.81;;;3.46;100.00
12664;BME280;6396;58.490;15.528;2022-11-18T04:19:17;100732.97;;;1.42;100.00
12664;BME280;6396;58.490;15.528;2022-11-18T04:21:44;100987.63;;;3.21;100.00
12664;BME280;6396;58.490;15.528;2022-11-18T04:24:12;101002.69;;;3.52;100.00
12664;BME280;6396;58.490;15.528;2022-11-18T04:26:38;101006.09;;;3.47;100.00
12664;BME280;6396;58.490;15.528;2022-11-18T04:29:05;101000.03;;;3.46;100.00
12664;BME280;6396;58.490;15.528;2022-11-18T04:31:32;100965.84;;;3.16;100.00
12664;BME280;6396;58.490;15.528;2022-11-18T04:34:00;101040.91;;;3.44;100.00
12664;BME280;6396;58.490;15.528;2022-11-18T04:36:27;100870.63;;;2.66;100.00
12664;BME280;6396;58.490;15.528;2022-11-18T04:38:54;101021.75;;;3.47;100.00
12664;BME280;6396;58.490;15.528;2022-11-18T04:41:20;101006.97;;;3.44;100.00
12664;BME280;6396;58.490;15.528;2022-11-18T04:44:07;101022.53;;;3.35;100.00
12664;BME280;6396;58.490;15.528;2022-11-18T04:46:38;100886.41;;;2.84;100.00
12664;BME280;6396;58.490;15.528;2022-11-18T04:49:06;101014.00;;;3.51;100.00
12664;BME280;6396;58.490;15.528;2022-11-18T04:51:33;101019.19;;;3.48;100.00
12664;BME280;6396;58.490;15.528;2022-11-18T04:54:01;100890.63;;;2.70;100.00
12664;BME280;6396;58.490;15.528;2022-11-18T04:56:27;100896.63;;;2.63;100.00
12664;BME280;6396;58.490;15.528;2022-11-18T04:58:55;100837.25;;;2.32;100.00
12664;BME280;6396;58.490;15.528;2022-11-18T05:01:23;101018.94;;;3.24;100.00
12664;BME280;6396;58.490;15.528;2022-11-18T05:03:50;101040.81;;;3.38;100.00
12664;BME280;6396;58.490;15.528;2022-11-18T05:06:18;101024.31;;;3.39;100.00
12664;BME280;6396;58.490;15.528;2022-11-18T05:08:45;101054.75;;;3.40;100.00
12664;BME280;6396;58.490;15.528;2022-11-18T05:11:12;101037.41;;;3.45;100.00
12664;BME280;6396;58.490;15.528;2022-11-18T05:13:56;101032.25;;;3.50;100.00
12664;BME280;6396;58.490;15.528;2022-11-18T05:16:23;101034.00;;;3.54;100.00
12664;BME280;6396;58.490;15.528;2022-11-18T05:18:49;100994.53;;;3.17;100.00
12664;BME280;6396;58.490;15.528;2022-11-18T05:21:18;100821.63;;;2.35;100.00
12664;BME280;6396;58.490;15.528;2022-11-18T05:23:44;101108.91;;;3.62;100.00
12664;BME280;6396;58.490;15.528;2022-11-18T05:26:12;101045.41;;;3.60;100.00
12664;BME280;6396;58.490;15.528;2022-11-18T05:28:38;101050.63;;;3.63;100.00
12664;BME280;6396;58.490;15.528;2022-11-18T05:31:08;101072.38;;;3.62;100.00
12664;BME280;6396;58.490;15.528;2022-11-18T05:33:35;101054.97;;;3.63;100.00
12664;BME280;6396;58.490;15.528;2022-11-18T05:36:03;101035.59;;;3.38;100.00
12664;BME280;6396;58.490;15.528;2022-11-18T05:38:32;101048.94;;;3.65;100.00
12664;BME280;6396;58.490;15.528;2022-11-18T05:40:59;100953.59;;;3.10;100.00
12664;BME280;6396;58.490;15.528;2022-11-18T05:43:26;101057.59;;;3.63;100.00
12664;BME280;6396;58.490;15.528;2022-11-18T05:45:52;101054.09;;;3.62;100.00
12664;BME280;6396;58.490;15.528;2022-11-18T05:48:21;101092.41;;;3.62;100.00
12664;BME280;6396;58.490;15.528;2022-11-18T05:50:48;101060.75;;;3.27;100.00
12664;BME280;6396;58.490;15.528;2022-11-18T05:53:17;101022.41;;;3.20;100.00
12664;BME280;6396;58.490;15.528;2022-11-18T05:55:49;100970.72;;;2.84;100.00
12664;BME280;6396;58.490;15.528;2022-11-18T05:58:18;101064.22;;;3.29;100.00
12664;BME280;6396;58.490;15.528;2022-11-18T06:00:46;100903.16;;;2.24;100.00
12664;BME280;6396;58.490;15.528;2022-11-18T06:03:18;101079.16;;;3.42;100.00
12664;BME280;6396;58.490;15.528;2022-11-18T06:05:47;101084.50;;;3.57;100.00
12664;BME280;6396;58.490;15.528;2022-11-18T06:08:15;101042.41;;;3.24;100.00
12664;BME280;6396;58.490;15.528;2022-11-18T06:10:46;101048.53;;;3.24;100.00
12664;BME280;6396;58.490;15.528;2022-11-18T06:13:17;101036.38;;;3.28;100.00
12664;BME280;6396;58.490;15.528;2022-11-18T06:15:44;101061.59;;;3.27;100.00
12664;BME280;6396;58.490;15.528;2022-11-18T06:18:17;100838.84;;;2.20;100.00
12664;BME280;6396;58.490;15.528;2022-11-18T06:20:46;101074.03;;;3.51;100.00
12664;BME280;6396;58.490;15.528;2022-11-18T06:23:13;101104.66;;;3.69;100.00
12664;BME280;6396;58.490;15.528;2022-11-18T06:25:42;101064.31;;;3.36;100.00
12664;BME280;6396;58.490;15.528;2022-11-18T06:28:11;101112.53;;;3.75;100.00
12664;BME280;6396;58.490;15.528;2022-11-18T06:30:39;101100.06;;;3.45;100.00
12664;BME280;6396;58.490;15.528;2022-11-18T06:33:07;100979.50;;;2.92;100.00
12664;BME280;6396;58.490;15.528;2022-11-18T06:35:34;101088.88;;;3.58;100.00
12664;BME280;6396;58.490;15.528;2022-11-18T06:38:01;101129.06;;;3.75;100.00
12664;BME280;6396;58.490;15.528;2022-11-18T06:40:28;101150.88;;;3.77;100.00
12664;BME280;6396;58.490;15.528;2022-11-18T06:42:55;101032.88;;;3.26;100.00
12664;BME280;6396;58.490;15.528;2022-11-18T06:45:41;101129.03;;;3.71;100.00
12664;BME280;6396;58.490;15.528;2022-11-18T06:48:30;101095.63;;;3.39;100.00
12664;BME280;6396;58.490;15.528;2022-11-18T06:50:56;101076.44;;;3.31;100.00
12664;BME280;6396;58.490;15.528;2022-11-18T06:53:23;101145.56;;;3.73;100.00
12664;BME280;6396;58.490;15.528;2022-11-18T06:55:49;101062.34;;;3.16;100.00
12664;BME280;6396;58.490;15.528;2022-11-18T06:58:16;100636.16;;;0.93;100.00
12664;BME280;6396;58.490;15.528;2022-11-18T07:00:44;100946.94;;;2.54;100.00
12664;BME280;6396;58.490;15.528;2022-11-18T07:03:11;101138.75;;;3.87;100.00
12664;BME280;6396;58.490;15.528;2022-11-18T07:05:38;101076.66;;;3.56;100.00
12664;BME280;6396;58.490;15.528;2022-11-18T07:08:05;101131.88;;;3.96;100.00
12664;BME280;6396;58.490;15.528;2022-11-18T07:10:31;101123.84;;;3.72;100.00
12664;BME280;6396;58.490;15.528;2022-11-18T07:12:58;101158.03;;;3.99;100.00
12664;BME280;6396;58.490;15.528;2022-11-18T07:15:27;100930.72;;;2.82;100.00
12664;BME280;6396;58.490;15.528;2022-11-18T07:18:50;101087.22;;;3.66;100.00
12664;BME280;6396;58.490;15.528;2022-11-18T07:21:31;101041.59;;;3.28;100.00
12664;BME280;6396;58.490;15.528;2022-11-18T07:23:57;101051.28;;;3.39;100.00
12664;BME280;6396;58.490;15.528;2022-11-18T07:26:24;101160.63;;;3.96;100.00
12664;BME280;6396;58.490;15.528;2022-11-18T07:28:52;101168.44;;;3.95;100.00
12664;BME280;6396;58.490;15.528;2022-11-18T07:31:19;101183.19;;;3.88;100.00
12664;BME280;6396;58.490;15.528;2022-11-18T07:33:48;101166.69;;;3.94;100.00
12664;BME280;6396;58.490;15.528;2022-11-18T07:36:20;101173.69;;;3.98;100.00
12664;BME280;6396;58.490;15.528;2022-11-18T07:38:47;101181.41;;;3.86;100.00
12664;BME280;6396;58.490;15.528;2022-11-18T07:41:16;101172.88;;;4.03;100.00
12664;BME280;6396;58.490;15.528;2022-11-18T07:43:43;100916.56;;;2.58;100.00
12664;BME280;6396;58.490;15.528;2022-11-18T07:46:11;101191.16;;;4.03;100.00
12664;BME280;6396;58.490;15.528;2022-11-18T07:48:39;101178.97;;;4.02;100.00
12664;BME280;6396;58.490;15.528;2022-11-18T07:51:07;101099.25;;;3.52;100.00
12664;BME280;6396;58.490;15.528;2022-11-18T07:53:35;101189.47;;;4.10;100.00
12664;BME280;6396;58.490;15.528;2022-11-18T07:56:03;101166.63;;;3.85;100.00
12664;BME280;6396;58.490;15.528;2022-11-18T07:58:30;101205.13;;;4.08;100.00
12664;BME280;6396;58.490;15.528;2022-11-18T08:00:57;101156.16;;;3.85;100.00
12664;BME280;6396;58.490;15.528;2022-11-18T08:03:25;101139.81;;;4.04;100.00
12664;BME280;6396;58.490;15.528;2022-11-18T08:05:52;101154.53;;;3.97;100.00
12664;BME280;6396;58.490;15.528;2022-11-18T08:08:20;101163.34;;;4.07;100.00
12664;BME280;6396;58.490;15.528;2022-11-18T08:10:47;101200.84;;;4.16;100.00
12664;BME280;6396;58.490;15.528;2022-11-18T08:13:14;101172.97;;;4.15;100.00
12664;BME280;6396;58.490;15.528;2022-11-18T08:15:41;101173.84;;;4.14;100.00
12664;BME280;6396;58.490;15.528;2022-11-18T08:18:08;101198.28;;;4.18;100.00
12664;BME280;6396;58.490;15.528;2022-11-18T08:20:35;101136.22;;;3.94;100.00
12664;BME280;6396;58.490;15.528;2022-11-18T08:23:02;101173.78;;;4.08;100.00
12664;BME280;6396;58.490;15.528;2022-11-18T08:25:30;101177.41;;;4.25;100.00
12664;BME280;6396;58.490;15.528;2022-11-18T08:27:57;101109.09;;;3.79;100.00
12664;BME280;6396;58.490;15.528;2022-11-18T08:30:29;100778.81;;;2.07;100.00
12664;BME280;6396;58.490;15.528;2022-11-18T08:32:56;101190.66;;;4.45;100.00
12664;BME280;6396;58.490;15.528;2022-11-18T08:35:24;101130.25;;;4.09;100.00
12664;BME280;6396;58.490;15.528;2022-11-18T08:37:52;101141.63;;;4.17;100.00
12664;BME280;6396;58.490;15.528;2022-11-18T08:40:18;101106.66;;;3.97;100.00
12664;BME280;6396;58.490;15.528;2022-11-18T08:42:47;101173.88;;;4.17;100.00
12664;BME280;6396;58.490;15.528;2022-11-18T08:45:14;101199.38;;;4.45;100.00
12664;BME280;6396;58.490;15.528;2022-11-18T08:47:41;101222.03;;;4.46;100.00
12664;BME280;6396;58.490;15.528;2022-11-18T08:50:10;101169.53;;;4.19;100.00
12664;BME280;6396;58.490;15.528;2022-11-18T08:52:37;101200.22;;;4.44;100.00
12664;BME280;6396;58.490;15.528;2022-11-18T08:55:04;101183.72;;;4.48;100.00
12664;BME280;6396;58.490;15.528;2022-11-18T08:57:31;101146.91;;;4.21;100.00
12664;BME280;6396;58.490;15.528;2022-11-18T08:59:59;101154.84;;;4.33;100.00
12664;BME280;6396;58.490;15.528;2022-11-18T09:02:26;101230.88;;;4.64;100.00
12664;BME280;6396;58.490;15.528;2022-11-18T09:04:53;101176.69;;;4.40;100.00
12664;BME280;6396;58.490;15.528;2022-11-18T09:07:20;101131.16;;;4.11;100.00
12664;BME280;6396;58.490;15.528;2022-11-18T09:09:48;101097.13;;;4.06;100.00
12664;BME280;6396;58.490;15.528;2022-11-18T09:12:15;101229.28;;;4.81;100.00
12664;BME280;6396;58.490;15.528;2022-11-18T09:14:42;101159.34;;;4.49;100.00
12664;BME280;6396;58.490;15.528;2022-11-18T09:17:10;101158.53;;;4.63;100.00
12664;BME280;6396;58.490;15.528;2022-11-18T09:19:38;101148.09;;;4.67;100.00
12664;BME280;6396;58.490;15.528;2022-11-18T09:22:06;101194.50;;;4.97;100.00
12664;BME280;6396;58.490;15.528;2022-11-18T09:24:33;101221.53;;;4.97;100.00
12664;BME280;6396;58.490;15.528;2022-11-18T09:27:01;101167.34;;;4.78;100.00
12664;BME280;6396;58.490;15.528;2022-11-18T09:29:28;101087.78;;;4.38;100.00
12664;BME280;6396;58.490;15.528;2022-11-18T09:31:55;101198.03;;;5.03;100.00
12664;BME280;6396;58.490;15.528;2022-11-18T09:34:23;101079.81;;;4.17;100.00
12664;BME280;6396;58.490;15.528;2022-11-18T09:36:51;101129.78;;;4.63;100.00
12664;BME280;6396;58.490;15.528;2022-11-18T09:39:20;101209.38;;;5.07;100.00
12664;BME280;6396;58.490;15.528;2022-11-18T09:41:48;101168.16;;;4.70;100.00
12664;BME280;6396;58.490;15.528;2022-11-18T09:47:21;101230.25;;;4.96;100.00
12664;BME280;6396;58.490;15.528;2022-11-18T09:49:53;101078.91;;;4.15;100.00
12664;BME280;6396;58.490;15.528;2022-11-18T09:52:23;101241.63;;;5.04;100.00
12664;BME280;6396;58.490;15.528;2022-11-18T09:54:51;101118.25;;;4.35;100.00
12664;BME280;6396;58.490;15.528;2022-11-18T09:57:21;100510.63;;;1.00;100.00
12664;BME280;6396;58.490;15.528;2022-11-18T09:59:53;100757.25;;;2.18;100.00
12664;BME280;6396;58.490;15.528;2022-11-18T10:02:32;100928.69;;;3.46;100.00
12664;BME280;6396;58.490;15.528;2022-11-18T10:05:13;100789.41;;;2.22;100.00
12664;BME280;6396;58.490;15.528;2022-11-18T10:07:45;101215.47;;;5.06;100.00
12664;BME280;6396;58.490;15.528;2022-11-18T10:10:17;101162.13;;;4.81;100.00
12664;BME280;6396;58.490;15.528;2022-11-18T10:12:49;101180.50;;;4.90;100.00
12664;BME280;6396;58.490;15.528;2022-11-18T10:15:21;101244.25;;;5.03;100.00
12664;BME280;6396;58.490;15.528;2022-11-18T10:18:17;101082.44;;;4.23;100.00
12664;BME280;6396;58.490;15.528;2022-11-18T10:20:55;101155.03;;;4.59;100.00
12664;BME280;6396;58.490;15.528;2022-11-18T10:23:28;101228.56;;;5.06;100.00
12664;BME280;6396;58.490;15.528;2022-11-18T10:25:58;101148.97;;;4.71;100.00
12664;BME280;6396;58.490;15.528;2022-11-18T10:28:25;101296.59;;;5.04;100.00
12664;BME280;6396;58.490;15.528;2022-11-18T10:31:02;101145.31;;;4.38;100.00
12664;BME280;6396;58.490;15.528;2022-11-18T10:33:30;101197.97;;;4.90;100.00
12664;BME280;6396;58.490;15.528;2022-11-18T10:36:18;101141.06;;;4.54;100.00
12664;BME280;6396;58.490;15.528;2022-11-18T10:38:45;101127.81;;;4.28;100.00
12664;BME280;6396;58.490;15.528;2022-11-18T10:41:14;101154.22;;;4.71;100.00
12664;BME280;6396;58.490;15.528;2022-11-18T10:43:47;101068.47;;;4.17;100.00
12664;BME280;6396;58.490;15.528;2022-11-18T10:46:17;101211.88;;;4.89;100.00
12664;BME280;6396;58.490;15.528;2022-11-18T10:48:44;101149.63;;;4.35;100.00
12664;BME280;6396;58.490;15.528;2022-11-18T10:51:22;101219.72;;;4.83;100.00
12664;BME280;6396;58.490;15.528;2022-11-18T10:53:49;101224.06;;;4.84;100.00
12664;BME280;6396;58.490;15.528;2022-11-18T10:56:16;101230.19;;;4.83;100.00
12664;BME280;6396;58.490;15.528;2022-11-18T10:58:45;100956.22;;;3.12;100.00
12664;BME280;6396;58.490;15.528;2022-11-18T11:01:19;101217.09;;;4.83;100.00
12664;BME280;6396;58.490;15.528;2022-11-18T11:03:58;101239.69;;;4.76;100.00
12664;BME280;6396;58.490;15.528;2022-11-18T11:06:32;100624.94;;;0.97;100.00
12664;BME280;6396;58.490;15.528;2022-11-18T11:09:05;101328.59;;;4.73;100.00
12664;BME280;6396;58.490;15.528;2022-11-18T11:11:34;101222.31;;;4.83;100.00
12664;BME280;6396;58.490;15.528;2022-11-18T11:14:22;101041.19;;;3.76;100.00
12664;BME280;6396;58.490;15.528;2022-11-18T11:17:08;101213.53;;;4.78;100.00
12664;BME280;6396;58.490;15.528;2022-11-18T11:19:43;101221.44;;;4.79;100.00
12664;BME280;6396;58.490;15.528;2022-11-18T11:22:15;101212.69;;;4.79;100.00
12664;BME280;6396;58.490;15.528;2022-11-18T11:24:43;101138.22;;;4.25;100.00
12664;BME280;6396;58.490;15.528;2022-11-18T11:27:20;101224.88;;;4.75;100.00
12664;BME280;6396;58.490;15.528;2022-11-18T11:30:02;101217.78;;;4.59;100.00
12664;BME280;6396;58.490;15.528;2022-11-18T11:32:37;101226.63;;;4.78;100.00
12664;BME280;6396;58.490;15.528;2022-11-18T11:35:11;101155.66;;;4.26;100.00
12664;BME280;6396;58.490;15.528;2022-11-18T11:37:49;101220.53;;;4.79;100.00
12664;BME280;6396;58.490;15.528;2022-11-18T11:40:31;101240.66;;;4.84;100.00
12664;BME280;6396;58.490;15.528;2022-11-18T11:43:26;101135.72;;;4.40;100.00
12664;BME280;6396;58.490;15.528;2022-11-18T11:46:07;101216.22;;;4.84;100.00
12664;BME280;6396;58.490;15.528;2022-11-18T11:48:52;101125.94;;;4.15;100.00
12664;BME280;6396;58.490;15.528;2022-11-18T11:51:26;101088.47;;;4.10;100.00
12664;BME280;6396;58.490;15.528;2022-11-18T11:54:05;101176.00;;;4.68;100.00
12664;BME280;6396;58.490;15.528;2022-11-18T11:56:40;101218.00;;;4.88;100.00
12664;BME280;6396;58.490;15.528;2022-11-18T11:59:18;101189.00;;;4.57;100.00
12664;BME280;6396;58.490;15.528;2022-11-18T12:01:56;101168.09;;;4.57;100.00
12664;BME280;6396;58.490;15.528;2022-11-18T12:04:45;101190.81;;;4.65;100.00
12664;BME280;6396;58.490;15.528;2022-11-18T12:07:18;101184.59;;;4.52;100.00
12664;BME280;6396;58.490;15.528;2022-11-18T12:12:55;100857.69;;;2.78;100.00
12664;BME280;6396;58.490;15.528;2022-11-18T12:15:39;101218.84;;;4.84;100.00
12664;BME280;6396;58.490;15.528;2022-11-18T12:18:14;101246.72;;;4.83;100.00
12664;BME280;6396;58.490;15.528;2022-11-18T12:20:45;101274.59;;;4.80;100.00
12664;BME280;6396;58.490;15.528;2022-11-18T12:23:15;101179.19;;;4.29;100.00
12664;BME280;6396;58.490;15.528;2022-11-18T12:25:51;101202.97;;;4.57;100.00
12664;BME280;6396;58.490;15.528;2022-11-18T12:28:23;101235.09;;;4.48;100.00
12664;BME280;6396;58.490;15.528;2022-11-18T12:31:33;101202.84;;;4.43;100.00
12664;BME280;6396;58.490;15.528;2022-11-18T12:36:44;101209.75;;;4.38;100.00
12664;BME280;6396;58.490;15.528;2022-11-18T12:39:46;101235.09;;;4.48;100.00
12664;BME280;6396;58.490;15.528;2022-11-18T12:42:37;101062.59;;;3.41;100.00
12664;BME280;6396;58.490;15.528;2022-11-18T12:45:57;101220.13;;;4.26;100.00
12664;BME280;6396;58.490;15.528;2022-11-18T12:48:35;101228.13;;;4.42;100.00
12664;BME280;6396;58.490;15.528;2022-11-18T12:54:35;101202.63;;;4.20;100.00
12664;BME280;6396;58.490;15.528;2022-11-18T12:57:17;101207.03;;;4.23;100.00
12664;BME280;6396;58.490;15.528;2022-11-18T12:59:46;101242.91;;;4.39;100.00
12664;BME280;6396;58.490;15.528;2022-11-18T13:02:20;101059.06;;;3.33;100.00
12664;BME280;6396;58.490;15.528;2022-11-18T13:05:06;101066.00;;;3.34;100.00
12664;BME280;6396;58.490;15.528;2022-11-18T13:07:38;101062.50;;;3.31;100.00
12664;BME280;6396;58.490;15.528;2022-11-18T13:10:27;101247.25;;;4.37;100.00
12664;BME280;6396;58.490;15.528;2022-11-18T13:12:55;101259.44;;;4.39;100.00
12664;BME280;6396;58.490;15.528;2022-11-18T13:15:23;101228.94;;;4.38;100.00
12664;BME280;6396;58.490;15.528;2022-11-18T13:18:14;101228.88;;;4.32;100.00
12664;BME280;6396;58.490;15.528;2022-11-18T13:20:54;101233.22;;;4.30;100.00
12664;BME280;6396;58.490;15.528;2022-11-18T13:23:28;101119.47;;;3.73;100.00